Time;durP1;ratioP1;P1;durP2;ratioP2;P2;SDS_P1;SDS_P2;PMS_P1;PMS_P2;Temp;Humidity;BMP_temperature;BMP_pressure;BME280_temperature;BME280_humidity;BME280_pressure;Samples;Min_cycle;Max_cycle;Signal;HPM_P1;HPM_P2
2020/12/11 00:00:14;;;;;;;;;;;;;;;;;;4981624;28;20060;-77
2020/12/11 00:02:40;;;;;;;0.57;0.30;;;;;;;;;;4985915;28;20394;-77
2020/12/11 00:05:06;;;;;;;1.73;0.98;;;;;;;;;;4986511;28;20057;-77
2020/12/11 00:07:39;;;;;;;1.60;0.60;;;;;;;;;;4986906;28;20048;-77
2020/12/11 00:10:09;;;;;;;0.85;0.40;;;;;;;;;;4982244;28;20508;-78
2020/12/11 00:12:35;;;;;;;;;;;;;;;;;;4983780;28;20050;-78
2020/12/11 00:15:03;;;;;;;0.45;0.40;;;;;;;;;;4997897;28;20206;-78
2020/12/11 00:17:29;;;;;;;0.68;0.50;;;;;;;;;;4988092;28;20133;-78
2020/12/11 00:19:55;;;;;;;0.68;0.50;;;;;;;;;;4979979;28;20072;-77
2020/12/11 00:22:22;;;;;;;0.90;0.50;;;;;;;;;;4981102;28;20081;-77
2020/12/11 00:24:52;;;;;;;0.98;0.50;;;;;;;;;;4984684;28;20136;-78
2020/12/11 00:27:18;;;;;;;0.82;0.40;;;;;;;;;;4985631;28;20415;-77
2020/12/11 00:29:45;;;;;;;0.73;0.40;;;;;;;;;;4984658;28;20552;-77
2020/12/11 00:32:11;;;;;;;0.95;0.40;;;;;;;;;;4983495;28;20492;-77
2020/12/11 00:34:37;;;;;;;3.45;0.88;;;;;;;;;;4984744;28;20061;-77
2020/12/11 00:37:05;;;;;;;0.77;0.47;;;;;;;;;;4983366;28;20057;-77
2020/12/11 00:39:31;;;;;;;1.15;0.60;;;;;;;;;;4981983;28;20070;-79
2020/12/11 00:41:57;;;;;;;0.70;0.55;;;;;;;;;;4984983;28;20431;-79
2020/12/11 00:44:23;;;;;;;0.57;0.43;;;;;;;;;;4982365;28;20046;-79
2020/12/11 00:46:49;;;;;;;1.30;0.55;;;;;;;;;;4983673;28;20042;-81
2020/12/11 00:49:16;;;;;;;0.85;0.40;;;;;;;;;;4983087;28;20065;-81
2020/12/11 00:51:42;;;;;;;1.55;0.70;;;;;;;;;;4979478;28;20046;-80
2020/12/11 00:54:08;;;;;;;0.68;0.50;;;;;;;;;;4979351;28;20126;-80
2020/12/11 00:56:34;;;;;;;0.43;0.40;;;;;;;;;;4981628;28;20054;-80
2020/12/11 00:59:02;;;;;;;0.60;0.43;;;;;;;;;;4980385;28;20047;-80
2020/12/11 01:01:28;;;;;;;2.50;0.60;;;;;;;;;;4984603;28;20042;-81
2020/12/11 01:03:54;;;;;;;0.95;0.50;;;;;;;;;;4983644;28;20045;-81
2020/12/11 01:06:21;;;;;;;2.15;0.98;;;;;;;;;;4985437;28;20090;-79
2020/12/11 01:08:47;;;;;;;0.63;0.40;;;;;;;;;;4982985;28;20069;-75
2020/12/11 01:11:13;;;;;;;2.58;0.40;;;;;;;;;;4983556;28;20488;-79
2020/12/11 01:13:39;;;;;;;2.72;1.08;;;;;;;;;;4988109;28;20050;-79
2020/12/11 01:16:06;;;;;;;0.82;0.60;;;;;;;;;;4982002;28;20073;-80
2020/12/11 01:18:35;;;;;;;2.33;0.60;;;;;;;;;;4988415;28;20415;-80
2020/12/11 01:21:01;;;;;;;4.20;0.93;;;;;;;;;;4984767;28;20062;-79
2020/12/11 01:23:28;;;;;;;1.45;0.73;;;;;;;;;;4980576;28;20049;-81
2020/12/11 01:25:54;;;;;;;2.20;0.52;;;;;;;;;;4991360;28;20046;-82
2020/12/11 01:28:21;;;;;;;2.17;0.90;;;;;;;;;;4988629;28;20069;-81
2020/12/11 01:30:47;;;;;;;1.08;0.68;;;;;;;;;;4989757;28;20054;-81
2020/12/11 01:33:15;;;;;;;1.65;0.88;;;;;;;;;;4985250;28;20054;-81
2020/12/11 01:35:42;;;;;;;2.67;0.88;;;;;;;;;;4990965;28;20057;-81
2020/12/11 01:38:08;;;;;;;2.85;0.90;;;;;;;;;;4987760;28;20076;-81
2020/12/11 01:40:37;;;;;;;1.23;0.70;;;;;;;;;;4984812;28;20487;-81
2020/12/11 01:43:03;;;;;;;0.98;0.63;;;;;;;;;;4990419;28;20061;-80
2020/12/11 01:45:30;;;;;;;5.80;0.88;;;;;;;;;;4988012;28;20049;-81
2020/12/11 01:47:57;;;;;;;2.92;0.98;;;;;;;;;;4990290;28;20420;-80
2020/12/11 01:50:23;;;;;;;2.85;0.70;;;;;;;;;;4988903;28;20053;-87
2020/12/11 01:52:51;;;;;;;0.70;0.70;;;;;;;;;;4987442;28;20051;-90
2020/12/11 01:55:17;;;;;;;1.40;0.60;;;;;;;;;;4992405;28;20440;-93
2020/12/11 01:57:53;;;;;;;0.77;0.40;;;;;;;;;;4989659;28;20412;-93
2020/12/11 02:00:20;;;;;;;2.80;1.23;;;;;;;;;;4987165;28;20050;-87
2020/12/11 02:02:47;;;;;;;3.90;1.15;;;;;;;;;;4990267;28;20377;-90
2020/12/11 02:05:13;;;;;;;3.35;0.90;;;;;;;;;;4983430;28;20050;-89
2020/12/11 02:07:40;;;;;;;0.88;0.43;;;;;;;;;;4984044;28;20047;-88
2020/12/11 02:10:07;;;;;;;1.30;0.65;;;;;;;;;;4986498;28;20408;-84
2020/12/11 02:12:33;;;;;;;1.65;0.77;;;;;;;;;;4982993;28;20050;-84
2020/12/11 02:15:06;;;;;;;1.25;0.70;;;;;;;;;;4987821;28;20054;-83
2020/12/11 02:17:32;;;;;;;0.75;0.50;;;;;;;;;;4986888;28;20513;-83
2020/12/11 02:19:58;;;;;;;2.70;0.80;;;;;;;;;;4990062;28;20515;-83
2020/12/11 02:22:24;;;;;;;1.90;0.75;;;;;;;;;;4990502;28;20046;-81
2020/12/11 02:24:50;;;;;;;1.33;0.50;;;;;;;;;;4985470;28;20054;-82
2020/12/11 02:27:17;;;;;;;3.15;0.70;;;;;;;;;;4990674;28;20055;-83
2020/12/11 02:29:43;;;;;;;1.48;0.90;;;;;;;;;;4985693;28;20047;-83
2020/12/11 02:32:13;;;;;;;1.83;0.60;;;;;;;;;;4991499;28;20046;-83
2020/12/11 02:34:43;;;;;;;2.90;0.85;;;;;;;;;;4989835;28;20424;-84
2020/12/11 02:37:11;;;;;;;1.45;1.35;;;;;;;;;;4990180;28;20043;-84
2020/12/11 02:39:37;;;;;;;2.28;0.75;;;;;;;;;;4992202;28;20051;-84
2020/12/11 02:42:05;;;;;;;1.15;0.68;;;;;;;;;;4987347;28;20419;-84
2020/12/11 02:44:31;;;;;;;2.53;1.05;;;;;;;;;;4985644;28;20438;-82
2020/12/11 02:46:58;;;;;;;1.42;0.63;;;;;;;;;;4985667;28;20301;-83
2020/12/11 02:49:24;;;;;;;3.00;0.85;;;;;;;;;;4984921;28;20077;-85
2020/12/11 02:51:50;;;;;;;0.95;0.57;;;;;;;;;;4982051;28;20142;-87
2020/12/11 02:54:16;;;;;;;0.90;0.50;;;;;;;;;;4984109;28;20085;-87
2020/12/11 02:56:42;;;;;;;0.60;0.38;;;;;;;;;;4988046;28;20053;-84
2020/12/11 02:59:09;;;;;;;1.40;0.73;;;;;;;;;;4988444;28;20050;-84
2020/12/11 03:01:35;;;;;;;1.63;0.80;;;;;;;;;;4987441;28;20049;-81
2020/12/11 03:04:01;;;;;;;2.20;0.60;;;;;;;;;;4985032;28;20050;-80
2020/12/11 03:06:29;;;;;;;2.38;0.80;;;;;;;;;;4986907;28;20046;-83
2020/12/11 03:09:19;;;;;;;1.10;0.63;;;;;;;;;;4987490;28;20049;-82
2020/12/11 03:11:47;;;;;;;0.60;0.50;;;;;;;;;;4988947;28;20038;-82
2020/12/11 03:14:13;;;;;;;1.20;0.70;;;;;;;;;;4988190;28;20056;-82
2020/12/11 03:16:39;;;;;;;1.00;0.65;;;;;;;;;;4984206;28;20046;-84
2020/12/11 03:19:05;;;;;;;1.42;0.47;;;;;;;;;;4985337;28;20050;-81
2020/12/11 03:21:31;;;;;;;1.55;0.90;;;;;;;;;;4987079;28;20396;-83
2020/12/11 03:23:57;;;;;;;2.42;1.05;;;;;;;;;;4984378;28;20061;-84
2020/12/11 03:26:24;;;;;;;1.92;0.80;;;;;;;;;;4991570;28;20050;-84
2020/12/11 03:28:51;;;;;;;0.93;0.47;;;;;;;;;;4986918;28;20047;-82
2020/12/11 03:31:18;;;;;;;1.65;0.60;;;;;;;;;;4978465;28;20049;-80
2020/12/11 03:33:45;;;;;;;1.92;0.70;;;;;;;;;;4983671;28;20050;-82
2020/12/11 03:36:11;;;;;;;1.58;0.90;;;;;;;;;;4980778;28;20536;-81
2020/12/11 03:38:37;;;;;;;1.75;0.70;;;;;;;;;;4981797;28;20085;-81
2020/12/11 03:41:03;;;;;;;0.98;0.50;;;;;;;;;;4950646;28;812522;-81
2020/12/11 03:43:32;;;;;;;1.25;0.60;;;;;;;;;;4985247;28;20411;-82
2020/12/11 03:45:58;;;;;;;1.42;0.60;;;;;;;;;;4987458;28;20050;-82
2020/12/11 03:48:24;;;;;;;1.48;0.50;;;;;;;;;;4989676;28;20042;-84
2020/12/11 03:50:51;;;;;;;1.95;0.75;;;;;;;;;;4989991;28;20049;-81
2020/12/11 03:53:17;;;;;;;1.15;0.80;;;;;;;;;;4984527;28;20112;-82
2020/12/11 03:55:43;;;;;;;0.63;0.38;;;;;;;;;;4981080;28;20042;-82
2020/12/11 03:58:09;;;;;;;3.95;0.80;;;;;;;;;;4985383;28;20049;-83
2020/12/11 04:00:35;;;;;;;0.93;0.90;;;;;;;;;;4983658;28;20054;-82
2020/12/11 04:03:01;;;;;;;0.77;0.55;;;;;;;;;;4987760;28;20050;-81
2020/12/11 04:05:27;;;;;;;1.45;0.47;;;;;;;;;;4988726;28;20137;-81
2020/12/11 04:07:55;;;;;;;1.65;0.50;;;;;;;;;;4985598;28;20531;-82
2020/12/11 04:10:21;;;;;;;1.48;0.60;;;;;;;;;;4979816;28;20422;-84
2020/12/11 04:12:47;;;;;;;1.05;0.35;;;;;;;;;;4981149;28;20046;-84
2020/12/11 04:15:14;;;;;;;3.05;0.80;;;;;;;;;;4986057;28;20050;-84
2020/12/11 04:17:41;;;;;;;2.22;0.70;;;;;;;;;;4978451;28;20054;-83
2020/12/11 04:20:07;;;;;;;0.47;0.40;;;;;;;;;;4982609;28;20109;-84
2020/12/11 04:22:33;;;;;;;1.23;0.68;;;;;;;;;;4977048;28;20047;-82
2020/12/11 04:24:59;;;;;;;3.72;0.82;;;;;;;;;;4986990;28;20054;-82
2020/12/11 04:27:26;;;;;;;0.93;0.47;;;;;;;;;;4984208;28;20065;-82
2020/12/11 04:29:52;;;;;;;1.10;0.45;;;;;;;;;;4988574;28;20058;-83
2020/12/11 04:32:18;;;;;;;0.45;0.25;;;;;;;;;;4980118;28;20042;-83
2020/12/11 04:34:44;;;;;;;1.27;0.55;;;;;;;;;;4986830;28;20424;-83
2020/12/11 04:37:10;;;;;;;0.93;0.52;;;;;;;;;;4986889;28;20042;-83
2020/12/11 04:39:36;;;;;;;1.55;0.60;;;;;;;;;;4987931;28;20054;-84
2020/12/11 04:42:03;;;;;;;0.40;0.38;;;;;;;;;;4989556;28;20058;-82
2020/12/11 04:44:29;;;;;;;1.40;0.60;;;;;;;;;;4988840;28;20046;-82
2020/12/11 04:46:55;;;;;;;1.75;0.68;;;;;;;;;;4988494;28;20069;-81
2020/12/11 04:49:22;;;;;;;2.28;0.65;;;;;;;;;;4992454;28;20550;-82
2020/12/11 04:51:49;;;;;;;2.05;0.60;;;;;;;;;;4992592;28;20050;-82
2020/12/11 04:54:21;;;;;;;1.77;0.65;;;;;;;;;;4991735;28;20057;-79
2020/12/11 04:56:48;;;;;;;1.23;0.65;;;;;;;;;;4990404;28;20511;-82
2020/12/11 04:59:14;;;;;;;2.60;0.55;;;;;;;;;;4988817;28;20046;-83
2020/12/11 05:01:41;;;;;;;0.98;0.50;;;;;;;;;;4988763;28;20050;-83
2020/12/11 05:04:11;;;;;;;1.20;0.47;;;;;;;;;;4986196;28;20051;-83
2020/12/11 05:06:38;;;;;;;1.25;0.70;;;;;;;;;;4993580;28;20047;-83
2020/12/11 05:09:12;;;;;;;0.93;0.55;;;;;;;;;;4992172;28;20058;-84
2020/12/11 05:11:38;;;;;;;0.85;0.40;;;;;;;;;;4990398;28;20057;-84
2020/12/11 05:14:04;;;;;;;0.35;0.30;;;;;;;;;;4992460;28;20393;-85
2020/12/11 05:16:31;;;;;;;1.25;0.50;;;;;;;;;;4988382;28;20126;-86
2020/12/11 05:19:02;;;;;;;2.20;1.25;;;;;;;;;;4992454;28;20051;-84
2020/12/11 05:21:32;;;;;;;0.57;0.50;;;;;;;;;;4989626;28;20072;-80
2020/12/11 05:24:04;;;;;;;0.98;0.57;;;;;;;;;;4989208;28;20054;-81
2020/12/11 05:26:31;;;;;;;1.58;0.52;;;;;;;;;;4989508;28;20057;-80
2020/12/11 05:28:58;;;;;;;1.13;0.50;;;;;;;;;;4985709;28;20128;-81
2020/12/11 05:31:24;;;;;;;1.63;0.35;;;;;;;;;;4988396;28;20042;-80
2020/12/11 05:34:00;;;;;;;0.80;0.35;;;;;;;;;;4992347;28;20053;-80
2020/12/11 05:36:26;;;;;;;0.68;0.43;;;;;;;;;;4992433;28;20043;-80
2020/12/11 05:38:53;;;;;;;0.40;0.30;;;;;;;;;;4989986;28;20048;-81
2020/12/11 05:41:32;;;;;;;0.60;0.40;;;;;;;;;;4990617;28;20058;-80
2020/12/11 05:43:58;;;;;;;1.48;0.50;;;;;;;;;;4982105;28;20046;-81
2020/12/11 05:46:28;;;;;;;0.65;0.50;;;;;;;;;;4988416;28;20072;-83
2020/12/11 05:48:54;;;;;;;;;;;;;;;;;;4989003;28;20503;-82
2020/12/11 05:51:20;;;;;;;0.90;0.40;;;;;;;;;;4989944;28;19956;-83
2020/12/11 05:53:46;;;;;;;0.70;0.50;;;;;;;;;;4990682;28;20050;-85
2020/12/11 05:56:12;;;;;;;1.20;0.50;;;;;;;;;;4989777;28;20477;-80
2020/12/11 05:58:41;;;;;;;0.65;0.38;;;;;;;;;;4982058;28;20098;-82
2020/12/11 06:01:16;;;;;;;1.05;0.38;;;;;;;;;;4987648;28;20042;-81
2020/12/11 06:03:44;;;;;;;0.50;0.50;;;;;;;;;;4988278;28;20043;-80
2020/12/11 06:06:17;;;;;;;0.52;0.30;;;;;;;;;;4985971;28;20054;-81
2020/12/11 06:08:44;;;;;;;1.00;0.40;;;;;;;;;;4988370;28;20046;-79
2020/12/11 06:11:20;;;;;;;0.60;0.40;;;;;;;;;;4986694;28;20124;-80
2020/12/11 06:13:53;;;;;;;1.63;0.57;;;;;;;;;;4983987;28;20060;-80
2020/12/11 06:16:25;;;;;;;3.22;0.52;;;;;;;;;;4986676;28;20046;-80
2020/12/11 06:18:58;;;;;;;2.15;0.60;;;;;;;;;;4987285;28;20795;-81
2020/12/11 06:21:24;;;;;;;0.60;0.50;;;;;;;;;;4987544;28;20065;-79
2020/12/11 06:23:50;;;;;;;2.15;0.93;;;;;;;;;;4985227;28;20502;-80
2020/12/11 06:26:17;;;;;;;5.07;0.60;;;;;;;;;;4989537;28;20046;-80
2020/12/11 06:28:51;;;;;;;2.00;0.50;;;;;;;;;;4985855;28;20057;-79
2020/12/11 06:31:18;;;;;;;10.50;1.40;;;;;;;;;;4986427;28;20053;-76
2020/12/11 06:33:56;;;;;;;13.57;1.20;;;;;;;;;;4985218;28;20054;-84
2020/12/11 06:36:22;;;;;;;6.80;2.00;;;;;;;;;;4991021;28;20408;-79
2020/12/11 06:38:52;;;;;;;6.22;1.30;;;;;;;;;;4988300;28;20042;-78
2020/12/11 06:41:27;;;;;;;2.08;0.77;;;;;;;;;;4981803;28;20209;-79
2020/12/11 06:43:54;;;;;;;9.07;1.60;;;;;;;;;;4984162;28;20488;-82
2020/12/11 06:46:22;;;;;;;8.75;2.60;;;;;;;;;;4987713;28;20047;-82
2020/12/11 06:49:08;;;;;;;4.82;0.82;;;;;;;;;;4978693;28;20086;-80
2020/12/11 06:51:42;;;;;;;3.10;1.05;;;;;;;;;;4982719;28;20057;-78
2020/12/11 06:54:08;;;;;;;4.53;1.85;;;;;;;;;;4986179;28;20420;-79
2020/12/11 06:56:38;;;;;;;3.63;1.30;;;;;;;;;;4986059;28;20135;-79
2020/12/11 06:59:23;;;;;;;5.10;1.13;;;;;;;;;;4980977;28;20050;-79
2020/12/11 07:01:50;;;;;;;3.38;1.05;;;;;;;;;;4986085;28;20511;-78
2020/12/11 07:04:19;;;;;;;5.18;0.95;;;;;;;;;;4984584;28;20053;-79
2020/12/11 07:06:49;;;;;;;4.70;1.50;;;;;;;;;;4985143;28;20165;-79
2020/12/11 07:09:15;;;;;;;4.03;1.05;;;;;;;;;;4985327;28;20100;-78
2020/12/11 07:11:47;;;;;;;2.78;1.08;;;;;;;;;;4979609;28;20552;-79
2020/12/11 07:14:16;;;;;;;4.72;1.38;;;;;;;;;;4988398;28;20047;-78
2020/12/11 07:16:43;;;;;;;4.78;0.93;;;;;;;;;;4986786;28;20058;-78
2020/12/11 07:19:09;;;;;;;3.78;0.85;;;;;;;;;;4983767;28;20533;-76
2020/12/11 07:21:40;;;;;;;2.28;0.98;;;;;;;;;;4984456;28;20046;-77
2020/12/11 07:24:07;;;;;;;2.30;1.00;;;;;;;;;;4986046;28;20046;-77
2020/12/11 07:26:33;;;;;;;2.92;1.08;;;;;;;;;;4987645;28;20053;-77
2020/12/11 07:29:10;;;;;;;1.58;0.90;;;;;;;;;;4983750;28;20057;-76
2020/12/11 07:31:39;;;;;;;2.13;1.00;;;;;;;;;;4986094;28;20147;-77
2020/12/11 07:34:18;;;;;;;1.23;0.68;;;;;;;;;;4983219;28;20378;-75
2020/12/11 07:36:45;;;;;;;7.70;1.13;;;;;;;;;;4984405;28;20049;-76
2020/12/11 07:39:15;;;;;;;3.03;0.75;;;;;;;;;;4984050;28;20057;-75
2020/12/11 07:41:46;;;;;;;4.13;1.05;;;;;;;;;;4981308;28;20142;-75
2020/12/11 07:44:26;;;;;;;5.20;0.93;;;;;;;;;;4987961;28;20439;-75
2020/12/11 07:46:53;;;;;;;3.67;1.30;;;;;;;;;;4981892;28;20047;-75
2020/12/11 07:49:19;;;;;;;5.70;1.50;;;;;;;;;;4985286;28;20042;-75
2020/12/11 07:51:49;;;;;;;2.53;1.10;;;;;;;;;;4984055;28;20053;-75
2020/12/11 07:54:16;;;;;;;7.07;1.00;;;;;;;;;;4987939;28;20042;-74
2020/12/11 07:56:43;;;;;;;9.90;0.88;;;;;;;;;;4979751;28;20431;-77
2020/12/11 07:59:13;;;;;;;2.47;1.05;;;;;;;;;;4984769;28;20050;-73
2020/12/11 08:01:40;;;;;;;5.88;1.42;;;;;;;;;;4999785;28;20143;-74
2020/12/11 08:04:06;;;;;;;5.55;1.20;;;;;;;;;;4985107;28;20054;-75
2020/12/11 08:06:33;;;;;;;3.88;1.35;;;;;;;;;;4983666;28;20050;-75
2020/12/11 08:09:10;;;;;;;4.25;1.70;;;;;;;;;;4985950;28;20415;-75
2020/12/11 08:11:37;;;;;;;4.38;1.15;;;;;;;;;;4988472;28;20046;-75
2020/12/11 08:14:03;;;;;;;1.95;1.20;;;;;;;;;;4993978;28;20047;-75
2020/12/11 08:16:32;;;;;;;4.95;1.45;;;;;;;;;;4985664;28;20058;-75
2020/12/11 08:19:03;;;;;;;3.65;1.42;;;;;;;;;;4988515;28;20064;-75
2020/12/11 08:21:32;;;;;;;4.03;1.75;;;;;;;;;;4982367;28;20050;-75
2020/12/11 08:23:58;;;;;;;2.53;1.10;;;;;;;;;;4986092;28;20055;-75
2020/12/11 08:26:36;;;;;;;7.32;1.48;;;;;;;;;;4991912;28;20055;-75
2020/12/11 08:29:05;;;;;;;3.22;1.20;;;;;;;;;;4984106;28;20488;-75
2020/12/11 08:31:32;;;;;;;;;;;;;;;;;;4987334;28;20523;-74
2020/12/11 08:34:04;;;;;;;5.97;1.90;;;;;;;;;;4987513;28;19949;-75
2020/12/11 08:36:32;;;;;;;5.22;1.88;;;;;;;;;;4988555;28;20322;-75
2020/12/11 08:39:03;;;;;;;9.30;2.00;;;;;;;;;;4987921;28;20124;-74
2020/12/11 08:41:30;;;;;;;1.52;0.98;;;;;;;;;;4983298;28;20063;-75
2020/12/11 08:43:57;;;;;;;3.60;1.70;;;;;;;;;;4983187;28;20050;-72
2020/12/11 08:49:16;;;;;;;4.00;1.33;;;;;;;;;;4985346;28;20120;-75
2020/12/11 08:51:42;;;;;;;4.70;1.58;;;;;;;;;;4982288;28;20038;-80
2020/12/11 08:54:10;;;;;;;4.78;1.35;;;;;;;;;;4984349;28;20048;-78
2020/12/11 08:56:45;;;;;;;3.92;2.03;;;;;;;;;;4983542;28;20042;-76
2020/12/11 08:59:12;;;;;;;4.75;1.50;;;;;;;;;;4979471;28;20081;-79
2020/12/11 09:01:41;;;;;;;4.47;1.40;;;;;;;;;;4989211;28;20411;-79
2020/12/11 09:04:11;;;;;;;5.70;1.38;;;;;;;;;;4988281;28;20081;-80
2020/12/11 09:06:38;;;;;;;3.17;1.15;;;;;;;;;;4986179;28;20042;-78
2020/12/11 09:09:04;;;;;;;6.88;2.33;;;;;;;;;;4985920;28;20092;-79
2020/12/11 09:11:30;;;;;;;2.35;1.20;;;;;;;;;;4985565;28;20058;-75
2020/12/11 09:13:56;;;;;;;2.92;1.50;;;;;;;;;;4982270;28;20054;-78
2020/12/11 09:16:23;;;;;;;4.35;1.60;;;;;;;;;;4985253;28;20050;-78
2020/12/11 09:18:49;;;;;;;6.35;1.80;;;;;;;;;;4984749;28;20061;-78
2020/12/11 09:21:15;;;;;;;5.45;1.77;;;;;;;;;;4986050;28;20038;-77
2020/12/11 09:23:41;;;;;;;3.65;1.30;;;;;;;;;;4983325;28;20571;-79
2020/12/11 09:26:07;;;;;;;2.22;1.13;;;;;;;;;;4984939;28;20042;-76
2020/12/11 09:28:36;;;;;;;4.63;1.48;;;;;;;;;;4984599;28;20137;-77
2020/12/11 09:31:02;;;;;;;2.58;1.20;;;;;;;;;;4976415;28;20054;-78
2020/12/11 09:33:34;;;;;;;5.30;1.92;;;;;;;;;;4985873;28;20149;-77
2020/12/11 09:36:00;;;;;;;6.35;1.42;;;;;;;;;;4982874;28;20061;-78
2020/12/11 09:38:26;;;;;;;5.15;1.42;;;;;;;;;;4989085;28;20058;-78
2020/12/11 09:40:56;;;;;;;5.40;1.40;;;;;;;;;;4988113;28;20046;-77
2020/12/11 09:48:47;;;;;;;1.63;1.10;;;;;;;;;;4990538;28;20050;-78
2020/12/11 09:56:38;;;;;;;4.93;1.30;;;;;;;;;;4989429;28;20050;-79
2020/12/11 09:59:20;;;;;;;2.42;1.30;;;;;;;;;;4985218;28;20129;-79
2020/12/11 10:04:25;;;;;;;3.17;1.00;;;;;;;;;;4985870;28;20765;-80
2020/12/11 10:06:52;;;;;;;6.40;1.20;;;;;;;;;;4986535;28;20051;-78
2020/12/11 10:09:18;;;;;;;3.42;1.60;;;;;;;;;;4983769;28;20039;-77
2020/12/11 10:11:44;;;;;;;2.22;0.90;;;;;;;;;;4986223;28;20143;-77
2020/12/11 10:17:15;;;;;;;3.75;1.30;;;;;;;;;;4955015;28;20055;-76
2020/12/11 10:19:48;;;;;;;2.50;1.10;;;;;;;;;;4988656;28;20106;-77
2020/12/11 10:22:14;;;;;;;2.13;0.82;;;;;;;;;;4988517;28;20046;-76
2020/12/11 10:24:40;;;;;;;1.42;0.82;;;;;;;;;;4985105;28;20058;-77
2020/12/11 10:27:06;;;;;;;2.88;1.40;;;;;;;;;;4988078;28;20053;-77
2020/12/11 10:29:32;;;;;;;2.60;1.02;;;;;;;;;;4991589;28;20058;-77
2020/12/11 10:31:59;;;;;;;1.85;1.10;;;;;;;;;;4987792;28;20053;-78
2020/12/11 10:34:25;;;;;;;3.03;1.20;;;;;;;;;;4985049;28;20050;-78
2020/12/11 10:36:51;;;;;;;3.20;0.60;;;;;;;;;;4988283;28;20078;-77
2020/12/11 10:39:17;;;;;;;1.98;0.82;;;;;;;;;;4988234;28;20053;-77
2020/12/11 10:41:43;;;;;;;2.13;1.00;;;;;;;;;;4986881;28;20042;-78
2020/12/11 10:44:09;;;;;;;3.05;0.90;;;;;;;;;;4980217;28;20415;-78
2020/12/11 10:46:36;;;;;;;2.92;0.90;;;;;;;;;;4990946;28;20041;-78
2020/12/11 10:49:03;;;;;;;2.10;0.90;;;;;;;;;;4989263;28;20054;-78
2020/12/11 10:51:31;;;;;;;2.50;0.88;;;;;;;;;;4988124;28;20101;-78
2020/12/11 10:53:57;;;;;;;2.65;0.88;;;;;;;;;;4983522;28;20068;-80
2020/12/11 10:56:23;;;;;;;2.58;0.85;;;;;;;;;;4986642;28;20042;-77
2020/12/11 10:58:50;;;;;;;1.50;0.68;;;;;;;;;;4988534;28;20050;-78
2020/12/11 11:01:16;;;;;;;2.65;0.80;;;;;;;;;;4989252;28;20076;-80
2020/12/11 11:03:42;;;;;;;2.13;0.60;;;;;;;;;;4982720;28;20065;-77
2020/12/11 11:06:22;;;;;;;3.15;0.82;;;;;;;;;;4981844;28;20046;-76
2020/12/11 11:12:03;;;;;;;2.92;1.10;;;;;;;;;;4987007;28;20506;-78
2020/12/11 11:25:22;;;;;;;1.55;0.77;;;;;;;;;;4985224;28;20046;-78
2020/12/11 11:28:00;;;;;;;2.75;1.00;;;;;;;;;;4990978;28;20053;-81
2020/12/11 11:30:28;;;;;;;2.35;0.65;;;;;;;;;;4982689;28;20046;-78
2020/12/11 11:32:59;;;;;;;2.78;0.73;;;;;;;;;;4980201;28;20058;-76
2020/12/11 11:35:30;;;;;;;1.27;0.65;;;;;;;;;;4985374;28;20180;-78
2020/12/11 11:37:57;;;;;;;1.40;0.90;;;;;;;;;;4986472;28;20116;-78
2020/12/11 11:40:26;;;;;;;2.08;1.08;;;;;;;;;;4987369;28;20652;-77
2020/12/11 11:42:52;;;;;;;2.47;0.77;;;;;;;;;;4980658;28;20063;-77
2020/12/11 11:45:25;;;;;;;3.15;1.02;;;;;;;;;;4992005;28;20081;-78
2020/12/11 11:47:56;;;;;;;3.03;0.63;;;;;;;;;;4990428;28;20068;-76
2020/12/11 11:52:57;;;;;;;2.42;0.82;;;;;;;;;;4983466;28;20046;-77
2020/12/11 11:55:23;;;;;;;1.50;0.80;;;;;;;;;;4982716;28;20736;-77
2020/12/11 11:57:50;;;;;;;1.52;0.80;;;;;;;;;;4986167;28;20137;-74
2020/12/11 12:00:24;;;;;;;2.92;0.90;;;;;;;;;;4986676;28;20050;-78
2020/12/11 12:02:51;;;;;;;2.10;0.82;;;;;;;;;;4988981;28;20053;-77
2020/12/11 12:05:25;;;;;;;0.98;0.52;;;;;;;;;;4983164;28;20108;-77
2020/12/11 12:07:51;;;;;;;1.25;0.70;;;;;;;;;;4982839;28;20500;-78
2020/12/11 12:10:17;;;;;;;2.60;0.85;;;;;;;;;;4986526;28;20129;-78
2020/12/11 12:12:53;;;;;;;1.17;0.55;;;;;;;;;;4980687;28;20554;-77
2020/12/11 12:15:22;;;;;;;3.05;1.30;;;;;;;;;;4985125;28;20046;-77
2020/12/11 12:17:57;;;;;;;1.50;0.70;;;;;;;;;;4984717;28;21979;-77
2020/12/11 12:28:52;;;;;;;1.58;0.70;;;;;;;;;;4985634;28;20459;-77
2020/12/11 12:31:20;;;;;;;4.13;1.48;;;;;;;;;;4981211;28;20050;-78
2020/12/11 12:34:39;;;;;;;2.53;1.35;;;;;;;;;;4983164;28;20054;-76
2020/12/11 12:36:59;;;;;;;8.40;1.52;;;;;;;;;;4985686;28;20050;-78
2020/12/11 12:44:49;;;;;;;2.97;1.10;;;;;;;;;;4985095;28;20175;-77
2020/12/11 12:47:17;;;;;;;3.42;1.00;;;;;;;;;;4987468;28;20404;-77
2020/12/11 12:49:45;;;;;;;2.05;0.77;;;;;;;;;;4986381;28;20061;-77
2020/12/11 12:52:11;;;;;;;1.02;0.60;;;;;;;;;;4981443;28;20448;-77
2020/12/11 12:54:37;;;;;;;3.55;1.42;;;;;;;;;;4985525;28;20050;-77
2020/12/11 12:57:28;;;;;;;1.80;0.90;;;;;;;;;;4983656;28;20061;-77
2020/12/11 13:05:23;;;;;;;3.08;1.20;;;;;;;;;;4981918;28;20045;-76
2020/12/11 13:07:53;;;;;;;1.50;0.90;;;;;;;;;;4983327;28;20077;-78
2020/12/11 13:10:19;;;;;;;2.15;0.82;;;;;;;;;;4986722;28;20050;-77
2020/12/11 13:12:48;;;;;;;1.58;0.73;;;;;;;;;;4992687;28;20053;-79
2020/12/11 13:15:15;;;;;;;3.83;1.27;;;;;;;;;;4990118;28;20058;-77
2020/12/11 13:17:41;;;;;;;4.63;1.20;;;;;;;;;;4990186;28;20492;-77
2020/12/11 13:20:11;;;;;;;2.53;0.77;;;;;;;;;;4989147;28;20408;-78
2020/12/11 13:27:51;;;;;;;2.13;0.82;;;;;;;;;;4987754;28;20054;-78
2020/12/11 13:30:19;;;;;;;2.85;1.08;;;;;;;;;;4988951;28;20069;-77
2020/12/11 13:32:45;;;;;;;2.63;0.95;;;;;;;;;;4987732;28;20069;-80
2020/12/11 13:35:12;;;;;;;3.47;1.00;;;;;;;;;;4986677;28;20054;-77
2020/12/11 13:37:39;;;;;;;1.75;0.77;;;;;;;;;;4987983;28;20050;-75
2020/12/11 13:40:07;;;;;;;2.60;1.08;;;;;;;;;;4985171;28;20093;-79
2020/12/11 13:42:33;;;;;;;2.08;1.02;;;;;;;;;;4989404;28;20050;-77
2020/12/11 13:45:04;;;;;;;1.42;0.80;;;;;;;;;;4987379;28;20050;-78
2020/12/11 13:47:33;;;;;;;2.72;1.00;;;;;;;;;;4989038;28;20057;-77
2020/12/11 13:49:59;;;;;;;1.88;0.70;;;;;;;;;;4987288;28;20053;-77
2020/12/11 13:52:25;;;;;;;1.23;0.70;;;;;;;;;;4985026;28;20050;-77
2020/12/11 13:54:51;;;;;;;1.75;0.82;;;;;;;;;;4989202;28;20046;-78
2020/12/11 13:57:17;;;;;;;2.05;1.00;;;;;;;;;;4988124;28;20046;-77
2020/12/11 13:59:48;;;;;;;1.85;0.80;;;;;;;;;;4986248;28;20547;-78
2020/12/11 14:02:16;;;;;;;;;;;;;;;;;;4989249;28;20520;-77
2020/12/11 14:04:42;;;;;;;3.00;0.93;;;;;;;;;;4990103;28;19936;-77
2020/12/11 14:07:14;;;;;;;3.15;1.38;;;;;;;;;;4987659;28;20053;-77
2020/12/11 14:09:40;;;;;;;2.08;0.85;;;;;;;;;;4989599;28;20049;-78
2020/12/11 14:12:06;;;;;;;2.75;0.90;;;;;;;;;;4991592;28;20412;-76
2020/12/11 14:14:32;;;;;;;1.02;0.70;;;;;;;;;;4985588;28;20503;-81
2020/12/11 14:17:04;;;;;;;1.38;0.65;;;;;;;;;;4989961;28;20043;-75
2020/12/11 14:22:36;;;;;;;1.15;0.63;;;;;;;;;;4979413;28;20050;-77
2020/12/11 14:25:02;;;;;;;1.10;0.80;;;;;;;;;;4986453;28;20061;-77
2020/12/11 14:27:30;;;;;;;3.15;0.75;;;;;;;;;;4985679;28;20539;-76
2020/12/11 14:29:58;;;;;;;2.28;1.00;;;;;;;;;;4982800;28;20057;-76
2020/12/11 14:32:25;;;;;;;0.75;0.50;;;;;;;;;;4986022;28;20051;-77
2020/12/11 14:34:53;;;;;;;1.73;0.90;;;;;;;;;;4984701;28;20054;-77
2020/12/11 14:37:20;;;;;;;1.95;0.75;;;;;;;;;;4988925;28;20101;-77
2020/12/11 14:39:46;;;;;;;2.47;0.80;;;;;;;;;;4988625;28;20061;-77
2020/12/11 14:42:12;;;;;;;1.67;0.82;;;;;;;;;;4981493;28;20061;-77
2020/12/11 14:44:41;;;;;;;1.90;0.77;;;;;;;;;;4985494;28;20049;-78
2020/12/11 14:47:07;;;;;;;1.75;0.80;;;;;;;;;;4985606;28;20054;-77
2020/12/11 14:49:34;;;;;;;1.92;1.20;;;;;;;;;;4982156;28;20086;-78
2020/12/11 14:52:00;;;;;;;2.03;0.77;;;;;;;;;;4986275;28;20483;-78
2020/12/11 14:54:26;;;;;;;2.88;0.70;;;;;;;;;;4982012;28;20050;-78
2020/12/11 14:56:52;;;;;;;2.28;0.85;;;;;;;;;;4983689;28;20511;-79
2020/12/11 14:59:19;;;;;;;2.70;0.82;;;;;;;;;;4984577;28;20039;-78
2020/12/11 15:01:46;;;;;;;1.80;0.93;;;;;;;;;;4982903;28;20457;-78
2020/12/11 15:04:12;;;;;;;3.70;0.98;;;;;;;;;;4982616;28;20520;-78
2020/12/11 15:06:42;;;;;;;1.52;0.80;;;;;;;;;;4983144;28;20042;-77
2020/12/11 15:09:08;;;;;;;;;;;;;;;;;;4980930;28;20046;-78
2020/12/11 15:11:34;;;;;;;3.53;1.05;;;;;;;;;;4983880;28;20303;-77
2020/12/11 15:14:04;;;;;;;1.75;0.82;;;;;;;;;;4992144;28;20423;-78
2020/12/11 15:16:34;;;;;;;3.28;1.42;;;;;;;;;;4985434;28;20386;-78
2020/12/11 15:19:02;;;;;;;1.77;0.88;;;;;;;;;;4990847;28;20097;-78
2020/12/11 15:21:28;;;;;;;3.00;0.73;;;;;;;;;;4984423;28;20054;-78
2020/12/11 15:24:00;;;;;;;2.80;1.10;;;;;;;;;;4984515;28;20050;-77
2020/12/11 15:26:34;;;;;;;2.25;1.00;;;;;;;;;;4983997;28;20082;-78
2020/12/11 15:29:03;;;;;;;1.48;0.68;;;;;;;;;;4986300;28;20073;-77
2020/12/11 15:31:29;;;;;;;2.50;1.60;;;;;;;;;;4984375;28;20054;-78
2020/12/11 15:33:56;;;;;;;1.42;0.80;;;;;;;;;;4991120;28;20420;-77
2020/12/11 15:36:23;;;;;;;1.85;1.10;;;;;;;;;;4988170;28;20074;-77
2020/12/11 15:38:52;;;;;;;2.03;0.70;;;;;;;;;;4980208;28;20058;-76
2020/12/11 15:41:18;;;;;;;1.38;0.60;;;;;;;;;;4984580;28;20056;-76
2020/12/11 15:43:48;;;;;;;2.55;1.30;;;;;;;;;;4987252;28;20557;-76
2020/12/11 15:46:14;;;;;;;1.27;0.80;;;;;;;;;;4984004;28;20507;-77
2020/12/11 15:48:40;;;;;;;2.45;0.75;;;;;;;;;;4984547;28;20047;-77
2020/12/11 15:51:09;;;;;;;2.40;0.90;;;;;;;;;;4987667;28;20061;-76
2020/12/11 15:53:38;;;;;;;1.30;0.82;;;;;;;;;;4985124;28;20133;-76